Houston, Texas
Traffic Map
Current Weather Conditions
Houston, Texas
Few Clouds
Few Clouds
24°
Feels Like: 24°
Wind Chill: 24° Ceiling: Unl
Heat Index: 24° Visibility: 10mi
Dew Point: 15° Wind: 14mph
Humidity: 57% Direction: 200° (SSW)
Pressure: 29.9in Gusts: 25mph
Raw Report DataKMCJ 011755Z AUTO 20012G22KT 020V040 10SM FEW028 24/15 A2990 RMK AO1
Traffic Incident Summary
Active as of:
Severity:
Category:
InformationThere was an issue retrieving the traffic information for this location. Please try a different location or try again shortly.
Advertisements
Track Severe Weather on mobile